This demonstration page uses our WeatherBlox Daily Observations layout. Learn more.

Left ArrowRight Arrow

39.92423, -83.80882

Hourly Observations for August 8, 2016

Temp ( °F °C ) Dew Point ( °F °C ) Humidity (%) Winds ( mph kmh ) Pressure ( in mb ) Visibility ( mi km ) Precip ( " mm )
12:56 am 00:56 Clear 66 18.9 58 14.4 75 75 ENE 6 9 30.02 1017 10 16 N/A
1:56 am 01:56 Clear 65 18.3 58 14.4 78 78 ENE 6 9 30.01 1016 10 16 N/A
2:56 am 02:56 Clear 64 17.8 57 13.9 78 78 ENE 6 9 30.01 1016 10 16 N/A
3:56 am 03:56 Clear 65 18.3 57 13.9 76 76 ENE 8 13 30.01 1016 10 16 N/A
4:56 am 04:56 Clear 63 17.2 57 13.9 81 81 ENE 6 9 30.01 1016 10 16 N/A
5:56 am 05:56 Clear 63 17.2 57 13.9 81 81 ENE 6 9 30.02 1017 10 16 N/A
6:56 am 06:56 Sunny 62 16.7 57 13.9 84 84 undefined N/A 30.04 1017 10 16 N/A
8:56 am 08:56 Sunny 70 21.1 60 15.6 71 71 ENE 10 17 30.06 1018 10 16 N/A
9:56 am 09:56 Sunny 73 22.8 59 15 62 62 ENE 10 17 30.06 1018 10 16 N/A
10:56 am 10:56 Sunny 78 25.6 57 13.9 48 48 ENE 10 17 30.05 1018 10 16 N/A
11:56 am 11:56 Sunny 81 27.2 59 15 47 47 ENE 13 20 30.04 1017 10 16 N/A
12:56 pm 12:56 Sunny 82 27.8 60 15.6 47 47 E 14 22 30.03 1017 10 16 N/A
1:56 pm 13:56 Sunny 83 28.3 61 16.1 48 48 E 12 19 30.03 1017 10 16 N/A
2:56 pm 14:56 Sunny 85 29.4 61 16.1 45 45 ENE 8 13 N/A 10 16 N/A
3:56 pm 15:56 Sunny 85 29.4 61 16.1 45 45 ENE 13 20 30.01 1016 10 16 N/A
4:56 pm 16:56 Sunny 84 28.9 61 16.1 46 46 E 9 15 N/A 10 16 N/A
5:56 pm 17:56 Sunny 84 28.9 61 16.1 46 46 ENE 10 17 29.98 1015 10 16 N/A
6:56 pm 18:56 Sunny 83 28.3 60 15.6 46 46 ENE 9 15 29.98 1015 10 16 N/A
7:56 pm 19:56 Sunny 80 26.7 62 16.7 54 54 ENE 6 9 29.98 1015 10 16 N/A
8:56 pm 20:56 Mostly Clear 75 23.9 61 16.1 62 62 undefined N/A N/A 10 16 N/A
9:56 pm 21:56 Mostly Cloudy 72 22.2 62 16.7 71 71 ENE 6 9 30.00 1016 10 16 N/A
10:56 pm 22:56 Mostly Cloudy 73 22.8 62 16.7 69 69 ENE 5 7 30.00 1016 10 16 N/A
11:56 pm 23:56 Mostly Clear 70 21.1 62 16.7 76 76 undefined N/A N/A 10 16 N/A

Powered by AerisWeather